sensor_id;sensor_type;location;lat;lon;timestamp;P1;durP1;ratioP1;P2;durP2;ratioP2
38208;SDS011;24016;52.102;11.584;2023-02-08T00:00:39;125.93;;;45.03;;
38208;SDS011;24016;52.102;11.584;2023-02-08T00:03:05;120.30;;;44.53;;
38208;SDS011;24016;52.102;11.584;2023-02-08T00:05:30;116.32;;;44.03;;
38208;SDS011;24016;52.102;11.584;2023-02-08T00:07:56;111.78;;;43.28;;
38208;SDS011;24016;52.102;11.584;2023-02-08T00:10:22;124.03;;;45.10;;
38208;SDS011;24016;52.102;11.584;2023-02-08T00:12:47;123.97;;;44.72;;
38208;SDS011;24016;52.102;11.584;2023-02-08T00:15:13;124.53;;;46.80;;
38208;SDS011;24016;52.102;11.584;2023-02-08T00:17:39;132.38;;;47.47;;
38208;SDS011;24016;52.102;11.584;2023-02-08T00:20:05;120.43;;;43.55;;
38208;SDS011;24016;52.102;11.584;2023-02-08T00:22:31;122.28;;;44.55;;
38208;SDS011;24016;52.102;11.584;2023-02-08T00:24:56;116.40;;;41.92;;
38208;SDS011;24016;52.102;11.584;2023-02-08T00:27:22;119.93;;;43.63;;
38208;SDS011;24016;52.102;11.584;2023-02-08T00:29:47;110.20;;;43.28;;
38208;SDS011;24016;52.102;11.584;2023-02-08T00:32:13;123.20;;;43.05;;
38208;SDS011;24016;52.102;11.584;2023-02-08T00:34:38;115.50;;;43.45;;
38208;SDS011;24016;52.102;11.584;2023-02-08T00:37:04;116.55;;;42.65;;
38208;SDS011;24016;52.102;11.584;2023-02-08T00:39:30;115.68;;;45.65;;
38208;SDS011;24016;52.102;11.584;2023-02-08T00:41:57;109.70;;;42.92;;
38208;SDS011;24016;52.102;11.584;2023-02-08T00:44:22;112.85;;;44.20;;
38208;SDS011;24016;52.102;11.584;2023-02-08T00:46:48;117.50;;;44.30;;
38208;SDS011;24016;52.102;11.584;2023-02-08T00:49:14;111.60;;;44.05;;
38208;SDS011;24016;52.102;11.584;2023-02-08T00:51:40;122.18;;;44.92;;
38208;SDS011;24016;52.102;11.584;2023-02-08T00:54:05;115.20;;;45.25;;
38208;SDS011;24016;52.102;11.584;2023-02-08T00:56:31;127.43;;;44.08;;
38208;SDS011;24016;52.102;11.584;2023-02-08T00:58:56;119.22;;;43.72;;
38208;SDS011;24016;52.102;11.584;2023-02-08T01:01:22;113.15;;;43.03;;
38208;SDS011;24016;52.102;11.584;2023-02-08T01:03:47;117.82;;;43.83;;
38208;SDS011;24016;52.102;11.584;2023-02-08T01:06:14;118.25;;;44.40;;
38208;SDS011;24016;52.102;11.584;2023-02-08T01:08:41;115.38;;;41.75;;
38208;SDS011;24016;52.102;11.584;2023-02-08T01:11:10;112.00;;;42.90;;
38208;SDS011;24016;52.102;11.584;2023-02-08T01:13:38;119.80;;;42.30;;
38208;SDS011;24016;52.102;11.584;2023-02-08T01:16:05;123.97;;;42.70;;
38208;SDS011;24016;52.102;11.584;2023-02-08T01:18:57;123.72;;;41.75;;
38208;SDS011;24016;52.102;11.584;2023-02-08T01:21:28;106.53;;;41.13;;
38208;SDS011;24016;52.102;11.584;2023-02-08T01:23:56;127.20;;;42.45;;
38208;SDS011;24016;52.102;11.584;2023-02-08T01:26:22;108.00;;;40.60;;
38208;SDS011;24016;52.102;11.584;2023-02-08T01:28:48;135.75;;;42.60;;
38208;SDS011;24016;52.102;11.584;2023-02-08T01:31:15;121.15;;;41.92;;
38208;SDS011;24016;52.102;11.584;2023-02-08T01:33:48;118.07;;;42.80;;
38208;SDS011;24016;52.102;11.584;2023-02-08T01:36:14;121.35;;;43.63;;
38208;SDS011;24016;52.102;11.584;2023-02-08T01:38:41;105.40;;;40.65;;
38208;SDS011;24016;52.102;11.584;2023-02-08T01:41:08;107.90;;;40.70;;
38208;SDS011;24016;52.102;11.584;2023-02-08T01:44:03;114.30;;;39.83;;
38208;SDS011;24016;52.102;11.584;2023-02-08T01:46:35;109.93;;;42.20;;
38208;SDS011;24016;52.102;11.584;2023-02-08T01:49:17;80.27;;;31.77;;
38208;SDS011;24016;52.102;11.584;2023-02-08T01:51:52;108.13;;;40.65;;
38208;SDS011;24016;52.102;11.584;2023-02-08T01:54:56;104.95;;;41.15;;
38208;SDS011;24016;52.102;11.584;2023-02-08T01:57:35;117.43;;;42.20;;
38208;SDS011;24016;52.102;11.584;2023-02-08T02:00:02;112.72;;;40.55;;
38208;SDS011;24016;52.102;11.584;2023-02-08T02:02:32;105.22;;;40.95;;
38208;SDS011;24016;52.102;11.584;2023-02-08T02:04:59;103.10;;;41.47;;
38208;SDS011;24016;52.102;11.584;2023-02-08T02:07:25;101.07;;;40.65;;
38208;SDS011;24016;52.102;11.584;2023-02-08T02:10:03;105.68;;;41.22;;
38208;SDS011;24016;52.102;11.584;2023-02-08T02:12:42;110.45;;;41.53;;
38208;SDS011;24016;52.102;11.584;2023-02-08T02:15:08;107.68;;;42.35;;
38208;SDS011;24016;52.102;11.584;2023-02-08T02:17:35;110.32;;;41.10;;
38208;SDS011;24016;52.102;11.584;2023-02-08T02:20:03;113.45;;;42.25;;
38208;SDS011;24016;52.102;11.584;2023-02-08T02:37:02;92.73;;;35.27;;
38208;SDS011;24016;52.102;11.584;2023-02-08T02:40:01;119.60;;;42.25;;
38208;SDS011;24016;52.102;11.584;2023-02-08T02:46:02;102.03;;;39.00;;
38208;SDS011;24016;52.102;11.584;2023-02-08T02:48:52;109.38;;;41.20;;
38208;SDS011;24016;52.102;11.584;2023-02-08T02:54:52;108.15;;;41.92;;
38208;SDS011;24016;52.102;11.584;2023-02-08T02:57:29;111.43;;;40.45;;
38208;SDS011;24016;52.102;11.584;2023-02-08T02:59:57;98.35;;;40.70;;
38208;SDS011;24016;52.102;11.584;2023-02-08T03:02:24;104.05;;;38.00;;
38208;SDS011;24016;52.102;11.584;2023-02-08T03:04:53;112.80;;;38.85;;
38208;SDS011;24016;52.102;11.584;2023-02-08T03:10:16;146.85;;;37.30;;
38208;SDS011;24016;52.102;11.584;2023-02-08T03:12:59;93.55;;;38.33;;
38208;SDS011;24016;52.102;11.584;2023-02-08T03:15:39;100.97;;;39.08;;
38208;SDS011;24016;52.102;11.584;2023-02-08T03:32:22;87.97;;;35.83;;
38208;SDS011;24016;52.102;11.584;2023-02-08T03:35:01;91.20;;;36.85;;
38208;SDS011;24016;52.102;11.584;2023-02-08T03:37:38;94.85;;;38.17;;
38208;SDS011;24016;52.102;11.584;2023-02-08T03:40:10;92.05;;;39.35;;
38208;SDS011;24016;52.102;11.584;2023-02-08T03:42:42;93.13;;;38.33;;
38208;SDS011;24016;52.102;11.584;2023-02-08T03:45:20;99.38;;;38.60;;
38208;SDS011;24016;52.102;11.584;2023-02-08T03:47:57;92.95;;;38.20;;
38208;SDS011;24016;52.102;11.584;2023-02-08T03:50:28;98.82;;;40.13;;
38208;SDS011;24016;52.102;11.584;2023-02-08T03:52:56;99.93;;;41.85;;
38208;SDS011;24016;52.102;11.584;2023-02-08T03:55:23;95.68;;;39.05;;
38208;SDS011;24016;52.102;11.584;2023-02-08T03:57:53;78.38;;;36.08;;
38208;SDS011;24016;52.102;11.584;2023-02-08T04:00:23;121.30;;;41.08;;
38208;SDS011;24016;52.102;11.584;2023-02-08T04:03:00;88.65;;;38.55;;
38208;SDS011;24016;52.102;11.584;2023-02-08T04:05:30;90.47;;;39.47;;
38208;SDS011;24016;52.102;11.584;2023-02-08T04:07:57;88.43;;;39.30;;
38208;SDS011;24016;52.102;11.584;2023-02-08T04:10:22;89.40;;;41.05;;
38208;SDS011;24016;52.102;11.584;2023-02-08T04:12:48;100.15;;;40.33;;
38208;SDS011;24016;52.102;11.584;2023-02-08T04:15:14;94.03;;;39.67;;
38208;SDS011;24016;52.102;11.584;2023-02-08T04:17:40;93.40;;;42.67;;
38208;SDS011;24016;52.102;11.584;2023-02-08T04:20:05;90.05;;;39.67;;
38208;SDS011;24016;52.102;11.584;2023-02-08T04:22:31;81.53;;;39.22;;
38208;SDS011;24016;52.102;11.584;2023-02-08T04:24:57;91.63;;;41.50;;
38208;SDS011;24016;52.102;11.584;2023-02-08T04:27:23;93.20;;;38.50;;
38208;SDS011;24016;52.102;11.584;2023-02-08T04:29:49;89.25;;;40.83;;
38208;SDS011;24016;52.102;11.584;2023-02-08T04:32:14;87.13;;;38.90;;
38208;SDS011;24016;52.102;11.584;2023-02-08T04:34:40;84.45;;;38.60;;
38208;SDS011;24016;52.102;11.584;2023-02-08T04:37:06;89.10;;;40.58;;
38208;SDS011;24016;52.102;11.584;2023-02-08T04:39:33;88.35;;;39.78;;
38208;SDS011;24016;52.102;11.584;2023-02-08T04:41:58;86.53;;;39.90;;
38208;SDS011;24016;52.102;11.584;2023-02-08T04:44:24;79.18;;;38.50;;
38208;SDS011;24016;52.102;11.584;2023-02-08T04:46:49;82.03;;;39.38;;
38208;SDS011;24016;52.102;11.584;2023-02-08T04:49:15;82.03;;;38.83;;
38208;SDS011;24016;52.102;11.584;2023-02-08T04:51:40;84.38;;;40.75;;
38208;SDS011;24016;52.102;11.584;2023-02-08T04:54:06;79.60;;;38.00;;
38208;SDS011;24016;52.102;11.584;2023-02-08T04:56:32;84.07;;;39.92;;
38208;SDS011;24016;52.102;11.584;2023-02-08T04:58:57;81.85;;;38.25;;
38208;SDS011;24016;52.102;11.584;2023-02-08T05:01:23;81.45;;;38.13;;
38208;SDS011;24016;52.102;11.584;2023-02-08T05:03:48;83.40;;;39.70;;
38208;SDS011;24016;52.102;11.584;2023-02-08T05:06:14;83.70;;;38.17;;
38208;SDS011;24016;52.102;11.584;2023-02-08T05:08:40;80.15;;;39.60;;
38208;SDS011;24016;52.102;11.584;2023-02-08T05:11:05;81.30;;;39.22;;
38208;SDS011;24016;52.102;11.584;2023-02-08T05:13:31;79.20;;;38.40;;
38208;SDS011;24016;52.102;11.584;2023-02-08T05:15:56;78.20;;;38.00;;
38208;SDS011;24016;52.102;11.584;2023-02-08T05:18:22;85.78;;;39.50;;
38208;SDS011;24016;52.102;11.584;2023-02-08T05:20:58;80.57;;;38.58;;
38208;SDS011;24016;52.102;11.584;2023-02-08T05:23:25;84.15;;;38.83;;
38208;SDS011;24016;52.102;11.584;2023-02-08T05:25:51;82.07;;;38.95;;
38208;SDS011;24016;52.102;11.584;2023-02-08T05:28:17;89.22;;;39.40;;
38208;SDS011;24016;52.102;11.584;2023-02-08T05:30:43;82.57;;;37.97;;
38208;SDS011;24016;52.102;11.584;2023-02-08T05:33:10;83.45;;;39.10;;
38208;SDS011;24016;52.102;11.584;2023-02-08T05:35:35;84.15;;;38.60;;
38208;SDS011;24016;52.102;11.584;2023-02-08T05:38:01;88.85;;;39.50;;
38208;SDS011;24016;52.102;11.584;2023-02-08T05:40:27;94.40;;;40.50;;
38208;SDS011;24016;52.102;11.584;2023-02-08T05:42:52;84.93;;;38.78;;
38208;SDS011;24016;52.102;11.584;2023-02-08T05:45:18;90.70;;;40.75;;
38208;SDS011;24016;52.102;11.584;2023-02-08T05:47:43;87.22;;;39.83;;
38208;SDS011;24016;52.102;11.584;2023-02-08T05:50:11;86.10;;;41.20;;
38208;SDS011;24016;52.102;11.584;2023-02-08T05:52:37;89.10;;;42.25;;
38208;SDS011;24016;52.102;11.584;2023-02-08T05:55:03;93.00;;;42.20;;
38208;SDS011;24016;52.102;11.584;2023-02-08T05:57:28;94.38;;;40.75;;
38208;SDS011;24016;52.102;11.584;2023-02-08T05:59:54;88.03;;;41.72;;
38208;SDS011;24016;52.102;11.584;2023-02-08T06:02:19;91.72;;;42.33;;
38208;SDS011;24016;52.102;11.584;2023-02-08T06:04:45;95.88;;;42.05;;
38208;SDS011;24016;52.102;11.584;2023-02-08T06:07:12;98.95;;;44.70;;
38208;SDS011;24016;52.102;11.584;2023-02-08T06:09:39;85.47;;;41.33;;
38208;SDS011;24016;52.102;11.584;2023-02-08T06:12:04;96.55;;;42.30;;
38208;SDS011;24016;52.102;11.584;2023-02-08T06:14:31;87.78;;;42.15;;
38208;SDS011;24016;52.102;11.584;2023-02-08T06:16:56;96.82;;;43.70;;
38208;SDS011;24016;52.102;11.584;2023-02-08T06:19:22;91.20;;;41.22;;
38208;SDS011;24016;52.102;11.584;2023-02-08T06:21:48;96.93;;;44.08;;
38208;SDS011;24016;52.102;11.584;2023-02-08T06:24:14;94.53;;;42.78;;
38208;SDS011;24016;52.102;11.584;2023-02-08T06:26:40;94.82;;;42.88;;
38208;SDS011;24016;52.102;11.584;2023-02-08T06:29:06;91.78;;;44.35;;
38208;SDS011;24016;52.102;11.584;2023-02-08T06:31:31;91.13;;;43.50;;
38208;SDS011;24016;52.102;11.584;2023-02-08T06:33:57;81.38;;;40.65;;
38208;SDS011;24016;52.102;11.584;2023-02-08T06:36:22;82.72;;;42.33;;
38208;SDS011;24016;52.102;11.584;2023-02-08T06:38:48;85.75;;;42.85;;
38208;SDS011;24016;52.102;11.584;2023-02-08T06:41:14;92.32;;;42.58;;
38208;SDS011;24016;52.102;11.584;2023-02-08T06:43:39;86.93;;;43.70;;
38208;SDS011;24016;52.102;11.584;2023-02-08T06:46:05;90.18;;;44.80;;
38208;SDS011;24016;52.102;11.584;2023-02-08T06:48:33;98.95;;;44.45;;
38208;SDS011;24016;52.102;11.584;2023-02-08T06:50:59;87.78;;;43.08;;
38208;SDS011;24016;52.102;11.584;2023-02-08T06:53:25;90.43;;;43.65;;
38208;SDS011;24016;52.102;11.584;2023-02-08T06:55:50;94.95;;;45.28;;
38208;SDS011;24016;52.102;11.584;2023-02-08T06:58:16;92.60;;;43.03;;
38208;SDS011;24016;52.102;11.584;2023-02-08T07:00:42;93.65;;;44.95;;
38208;SDS011;24016;52.102;11.584;2023-02-08T07:03:11;94.57;;;43.13;;
38208;SDS011;24016;52.102;11.584;2023-02-08T07:05:38;89.63;;;43.53;;
38208;SDS011;24016;52.102;11.584;2023-02-08T07:08:04;84.40;;;42.53;;
38208;SDS011;24016;52.102;11.584;2023-02-08T07:10:30;82.57;;;40.40;;
38208;SDS011;24016;52.102;11.584;2023-02-08T07:12:56;79.43;;;41.35;;
38208;SDS011;24016;52.102;11.584;2023-02-08T07:15:21;88.03;;;43.15;;
38208;SDS011;24016;52.102;11.584;2023-02-08T07:17:47;85.25;;;42.58;;
38208;SDS011;24016;52.102;11.584;2023-02-08T07:20:14;86.25;;;41.10;;
38208;SDS011;24016;52.102;11.584;2023-02-08T07:22:40;87.95;;;43.40;;
38208;SDS011;24016;52.102;11.584;2023-02-08T07:25:06;85.13;;;42.50;;
38208;SDS011;24016;52.102;11.584;2023-02-08T07:27:33;85.40;;;44.17;;
38208;SDS011;24016;52.102;11.584;2023-02-08T07:29:58;91.30;;;45.55;;
38208;SDS011;24016;52.102;11.584;2023-02-08T07:32:24;90.00;;;42.80;;
38208;SDS011;24016;52.102;11.584;2023-02-08T07:34:49;84.93;;;42.92;;
38208;SDS011;24016;52.102;11.584;2023-02-08T07:37:15;86.57;;;43.83;;
38208;SDS011;24016;52.102;11.584;2023-02-08T07:39:42;79.55;;;44.38;;
38208;SDS011;24016;52.102;11.584;2023-02-08T07:42:08;90.63;;;43.33;;
38208;SDS011;24016;52.102;11.584;2023-02-08T07:44:35;90.60;;;43.13;;
38208;SDS011;24016;52.102;11.584;2023-02-08T07:47:02;89.15;;;43.42;;
38208;SDS011;24016;52.102;11.584;2023-02-08T07:49:28;76.65;;;42.13;;
38208;SDS011;24016;52.102;11.584;2023-02-08T07:51:54;92.80;;;42.33;;
38208;SDS011;24016;52.102;11.584;2023-02-08T07:54:19;74.95;;;41.13;;
38208;SDS011;24016;52.102;11.584;2023-02-08T07:56:45;81.50;;;42.83;;
38208;SDS011;24016;52.102;11.584;2023-02-08T07:59:11;78.53;;;42.70;;
38208;SDS011;24016;52.102;11.584;2023-02-08T08:01:36;82.78;;;43.65;;
38208;SDS011;24016;52.102;11.584;2023-02-08T08:04:02;83.10;;;43.03;;
38208;SDS011;24016;52.102;11.584;2023-02-08T08:06:27;81.28;;;41.78;;
38208;SDS011;24016;52.102;11.584;2023-02-08T08:08:53;83.53;;;41.80;;
38208;SDS011;24016;52.102;11.584;2023-02-08T08:11:19;83.07;;;43.05;;
38208;SDS011;24016;52.102;11.584;2023-02-08T08:13:45;79.72;;;43.40;;
38208;SDS011;24016;52.102;11.584;2023-02-08T08:16:11;74.32;;;40.95;;
38208;SDS011;24016;52.102;11.584;2023-02-08T08:18:37;79.10;;;42.88;;
38208;SDS011;24016;52.102;11.584;2023-02-08T08:21:03;80.05;;;44.22;;
38208;SDS011;24016;52.102;11.584;2023-02-08T08:23:29;77.50;;;43.92;;
38208;SDS011;24016;52.102;11.584;2023-02-08T08:25:57;83.85;;;45.08;;
38208;SDS011;24016;52.102;11.584;2023-02-08T08:28:23;80.75;;;42.95;;
38208;SDS011;24016;52.102;11.584;2023-02-08T08:30:49;88.97;;;47.15;;
38208;SDS011;24016;52.102;11.584;2023-02-08T08:33:14;83.97;;;45.15;;
38208;SDS011;24016;52.102;11.584;2023-02-08T08:35:40;78.18;;;42.42;;
38208;SDS011;24016;52.102;11.584;2023-02-08T08:38:07;79.05;;;44.55;;
38208;SDS011;24016;52.102;11.584;2023-02-08T08:40:33;81.90;;;45.30;;
38208;SDS011;24016;52.102;11.584;2023-02-08T08:42:59;86.13;;;46.22;;
38208;SDS011;24016;52.102;11.584;2023-02-08T08:45:24;84.03;;;45.50;;
38208;SDS011;24016;52.102;11.584;2023-02-08T08:47:50;82.50;;;45.53;;
38208;SDS011;24016;52.102;11.584;2023-02-08T08:50:16;78.28;;;44.28;;
38208;SDS011;24016;52.102;11.584;2023-02-08T08:52:42;85.95;;;46.20;;
38208;SDS011;24016;52.102;11.584;2023-02-08T08:55:07;82.80;;;45.28;;
38208;SDS011;24016;52.102;11.584;2023-02-08T08:57:33;80.90;;;43.92;;
38208;SDS011;24016;52.102;11.584;2023-02-08T08:59:58;83.30;;;45.63;;
38208;SDS011;24016;52.102;11.584;2023-02-08T09:02:24;85.53;;;44.67;;
38208;SDS011;24016;52.102;11.584;2023-02-08T09:04:50;77.70;;;45.08;;
38208;SDS011;24016;52.102;11.584;2023-02-08T09:07:16;87.13;;;47.22;;
38208;SDS011;24016;52.102;11.584;2023-02-08T09:09:41;80.93;;;45.72;;
38208;SDS011;24016;52.102;11.584;2023-02-08T09:12:11;82.78;;;45.03;;
38208;SDS011;24016;52.102;11.584;2023-02-08T09:14:37;81.22;;;46.45;;
38208;SDS011;24016;52.102;11.584;2023-02-08T09:17:03;75.30;;;43.45;;
38208;SDS011;24016;52.102;11.584;2023-02-08T09:19:29;82.82;;;45.53;;
38208;SDS011;24016;52.102;11.584;2023-02-08T09:21:54;84.07;;;45.95;;
38208;SDS011;24016;52.102;11.584;2023-02-08T09:24:21;79.07;;;43.90;;
38208;SDS011;24016;52.102;11.584;2023-02-08T09:26:48;84.38;;;44.55;;
38208;SDS011;24016;52.102;11.584;2023-02-08T09:29:13;78.15;;;44.60;;
38208;SDS011;24016;52.102;11.584;2023-02-08T09:31:38;80.18;;;43.90;;
38208;SDS011;24016;52.102;11.584;2023-02-08T09:34:05;76.43;;;44.55;;
38208;SDS011;24016;52.102;11.584;2023-02-08T09:36:34;74.78;;;44.03;;
38208;SDS011;24016;52.102;11.584;2023-02-08T09:39:34;78.10;;;43.67;;
38208;SDS011;24016;52.102;11.584;2023-02-08T09:47:09;80.57;;;42.72;;
38208;SDS011;24016;52.102;11.584;2023-02-08T09:49:49;70.88;;;40.55;;
38208;SDS011;24016;52.102;11.584;2023-02-08T09:52:54;68.97;;;39.28;;
38208;SDS011;24016;52.102;11.584;2023-02-08T09:55:27;67.38;;;38.88;;
38208;SDS011;24016;52.102;11.584;2023-02-08T09:57:57;69.57;;;39.70;;
38208;SDS011;24016;52.102;11.584;2023-02-08T10:00:31;68.55;;;39.90;;
38208;SDS011;24016;52.102;11.584;2023-02-08T10:03:00;68.07;;;39.33;;
38208;SDS011;24016;52.102;11.584;2023-02-08T10:05:26;73.40;;;40.05;;
38208;SDS011;24016;52.102;11.584;2023-02-08T10:07:54;94.75;;;45.88;;
38208;SDS011;24016;52.102;11.584;2023-02-08T10:16:35;75.88;;;42.17;;
38208;SDS011;24016;52.102;11.584;2023-02-08T10:19:19;80.90;;;40.53;;
38208;SDS011;24016;52.102;11.584;2023-02-08T10:27:47;85.55;;;48.05;;
38208;SDS011;24016;52.102;11.584;2023-02-08T10:33:11;81.35;;;42.13;;
38208;SDS011;24016;52.102;11.584;2023-02-08T10:35:58;86.05;;;43.78;;
38208;SDS011;24016;52.102;11.584;2023-02-08T10:38:28;76.78;;;42.20;;
38208;SDS011;24016;52.102;11.584;2023-02-08T10:40:57;76.88;;;40.58;;
38208;SDS011;24016;52.102;11.584;2023-02-08T10:43:30;71.75;;;40.72;;
38208;SDS011;24016;52.102;11.584;2023-02-08T10:46:07;70.10;;;39.72;;
38208;SDS011;24016;52.102;11.584;2023-02-08T10:49:02;66.43;;;38.08;;
38208;SDS011;24016;52.102;11.584;2023-02-08T10:51:49;65.32;;;39.67;;
38208;SDS011;24016;52.102;11.584;2023-02-08T10:54:14;62.03;;;36.35;;
38208;SDS011;24016;52.102;11.584;2023-02-08T10:57:03;57.42;;;35.58;;
38208;SDS011;24016;52.102;11.584;2023-02-08T10:59:30;62.10;;;36.72;;
38208;SDS011;24016;52.102;11.584;2023-02-08T11:02:00;59.92;;;35.55;;
38208;SDS011;24016;52.102;11.584;2023-02-08T11:04:25;58.33;;;35.67;;
38208;SDS011;24016;52.102;11.584;2023-02-08T11:06:51;57.58;;;36.65;;
38208;SDS011;24016;52.102;11.584;2023-02-08T11:09:19;64.32;;;36.83;;
38208;SDS011;24016;52.102;11.584;2023-02-08T11:11:46;60.50;;;36.60;;
38208;SDS011;24016;52.102;11.584;2023-02-08T11:14:17;58.05;;;35.30;;
38208;SDS011;24016;52.102;11.584;2023-02-08T11:16:53;57.08;;;36.35;;
38208;SDS011;24016;52.102;11.584;2023-02-08T11:19:33;57.35;;;35.55;;
38208;SDS011;24016;52.102;11.584;2023-02-08T11:22:11;60.25;;;37.53;;
38208;SDS011;24016;52.102;11.584;2023-02-08T11:24:40;58.90;;;35.80;;
38208;SDS011;24016;52.102;11.584;2023-02-08T11:27:18;59.20;;;37.20;;
38208;SDS011;24016;52.102;11.584;2023-02-08T11:32:33;63.97;;;36.58;;
38208;SDS011;24016;52.102;11.584;2023-02-08T11:35:10;59.08;;;37.85;;
38208;SDS011;24016;52.102;11.584;2023-02-08T11:37:37;65.70;;;38.15;;
38208;SDS011;24016;52.102;11.584;2023-02-08T11:40:14;73.05;;;41.65;;
38208;SDS011;24016;52.102;11.584;2023-02-08T11:42:47;70.05;;;40.10;;
38208;SDS011;24016;52.102;11.584;2023-02-08T11:45:21;65.57;;;39.33;;
38208;SDS011;24016;52.102;11.584;2023-02-08T11:47:49;69.32;;;40.03;;
38208;SDS011;24016;52.102;11.584;2023-02-08T11:50:23;70.90;;;41.67;;
38208;SDS011;24016;52.102;11.584;2023-02-08T11:52:58;70.97;;;40.55;;
38208;SDS011;24016;52.102;11.584;2023-02-08T11:55:27;73.05;;;40.55;;
38208;SDS011;24016;52.102;11.584;2023-02-08T11:57:59;63.22;;;39.13;;
38208;SDS011;24016;52.102;11.584;2023-02-08T12:00:32;60.30;;;38.75;;
38208;SDS011;24016;52.102;11.584;2023-02-08T12:05:56;59.60;;;37.70;;
38208;SDS011;24016;52.102;11.584;2023-02-08T12:08:51;60.53;;;37.40;;
38208;SDS011;24016;52.102;11.584;2023-02-08T12:11:25;52.88;;;34.05;;
38208;SDS011;24016;52.102;11.584;2023-02-08T12:16:33;49.83;;;34.50;;
38208;SDS011;24016;52.102;11.584;2023-02-08T12:19:17;54.22;;;35.10;;
38208;SDS011;24016;52.102;11.584;2023-02-08T12:24:54;50.47;;;34.17;;
38208;SDS011;24016;52.102;11.584;2023-02-08T12:30:33;49.78;;;34.13;;
38208;SDS011;24016;52.102;11.584;2023-02-08T12:33:25;48.38;;;33.38;;
38208;SDS011;24016;52.102;11.584;2023-02-08T12:41:45;51.92;;;34.97;;
38208;SDS011;24016;52.102;11.584;2023-02-08T12:44:36;51.88;;;35.15;;
38208;SDS011;24016;52.102;11.584;2023-02-08T12:47:26;50.95;;;33.00;;
38208;SDS011;24016;52.102;11.584;2023-02-08T12:52:43;53.10;;;35.22;;
38208;SDS011;24016;52.102;11.584;2023-02-08T12:55:14;49.17;;;34.08;;
38208;SDS011;24016;52.102;11.584;2023-02-08T12:57:44;56.90;;;33.88;;
38208;SDS011;24016;52.102;11.584;2023-02-08T13:00:15;53.95;;;32.60;;
38208;SDS011;24016;52.102;11.584;2023-02-08T13:02:49;50.75;;;33.28;;
38208;SDS011;24016;52.102;11.584;2023-02-08T13:05:21;53.88;;;34.40;;
38208;SDS011;24016;52.102;11.584;2023-02-08T13:07:53;55.95;;;34.20;;
38208;SDS011;24016;52.102;11.584;2023-02-08T13:10:45;57.42;;;35.53;;
38208;SDS011;24016;52.102;11.584;2023-02-08T13:13:18;59.85;;;36.28;;
38208;SDS011;24016;52.102;11.584;2023-02-08T13:15:51;55.88;;;35.38;;
38208;SDS011;24016;52.102;11.584;2023-02-08T13:18:32;60.47;;;36.35;;
38208;SDS011;24016;52.102;11.584;2023-02-08T13:21:19;57.15;;;34.88;;
38208;SDS011;24016;52.102;11.584;2023-02-08T13:23:49;53.80;;;34.57;;
38208;SDS011;24016;52.102;11.584;2023-02-08T13:26:16;55.03;;;34.40;;
38208;SDS011;24016;52.102;11.584;2023-02-08T13:28:51;56.03;;;36.35;;
38208;SDS011;24016;52.102;11.584;2023-02-08T13:31:22;52.63;;;34.25;;
38208;SDS011;24016;52.102;11.584;2023-02-08T13:36:58;59.65;;;35.50;;
38208;SDS011;24016;52.102;11.584;2023-02-08T13:39:36;61.78;;;37.58;;
38208;SDS011;24016;52.102;11.584;2023-02-08T13:42:17;58.28;;;37.28;;
38208;SDS011;24016;52.102;11.584;2023-02-08T13:44:50;61.42;;;38.22;;
38208;SDS011;24016;52.102;11.584;2023-02-08T13:48:01;63.22;;;39.38;;
38208;SDS011;24016;52.102;11.584;2023-02-08T13:53:08;65.20;;;39.42;;
38208;SDS011;24016;52.102;11.584;2023-02-08T13:56:07;63.53;;;40.92;;
38208;SDS011;24016;52.102;11.584;2023-02-08T13:58:36;63.22;;;40.08;;
38208;SDS011;24016;52.102;11.584;2023-02-08T14:01:07;61.15;;;40.30;;
38208;SDS011;24016;52.102;11.584;2023-02-08T14:03:38;63.55;;;39.90;;
38208;SDS011;24016;52.102;11.584;2023-02-08T14:06:21;59.92;;;38.40;;
38208;SDS011;24016;52.102;11.584;2023-02-08T14:09:02;63.15;;;40.20;;
38208;SDS011;24016;52.102;11.584;2023-02-08T14:14:19;60.47;;;37.92;;
38208;SDS011;24016;52.102;11.584;2023-02-08T14:19:28;59.10;;;38.33;;
38208;SDS011;24016;52.102;11.584;2023-02-08T14:21:59;46.67;;;31.00;;
38208;SDS011;24016;52.102;11.584;2023-02-08T14:27:48;58.25;;;37.58;;
38208;SDS011;24016;52.102;11.584;2023-02-08T14:32:49;58.00;;;38.97;;
38208;SDS011;24016;52.102;11.584;2023-02-08T14:35:22;58.83;;;37.38;;
38208;SDS011;24016;52.102;11.584;2023-02-08T14:37:51;53.65;;;36.42;;
38208;SDS011;24016;52.102;11.584;2023-02-08T14:40:56;59.20;;;38.10;;
38208;SDS011;24016;52.102;11.584;2023-02-08T14:43:27;53.50;;;35.72;;
38208;SDS011;24016;52.102;11.584;2023-02-08T14:49:13;59.20;;;35.88;;
38208;SDS011;24016;52.102;11.584;2023-02-08T14:51:42;51.00;;;34.47;;
38208;SDS011;24016;52.102;11.584;2023-02-08T14:54:22;51.45;;;34.78;;
38208;SDS011;24016;52.102;11.584;2023-02-08T14:56:57;52.20;;;35.35;;
38208;SDS011;24016;52.102;11.584;2023-02-08T14:59:29;54.00;;;34.88;;
38208;SDS011;24016;52.102;11.584;2023-02-08T15:02:01;55.03;;;36.35;;
38208;SDS011;24016;52.102;11.584;2023-02-08T15:04:40;56.08;;;35.63;;
38208;SDS011;24016;52.102;11.584;2023-02-08T15:09:52;54.40;;;36.38;;
38208;SDS011;24016;52.102;11.584;2023-02-08T15:12:34;54.75;;;35.53;;
38208;SDS011;24016;52.102;11.584;2023-02-08T15:15:02;51.90;;;34.78;;
38208;SDS011;24016;52.102;11.584;2023-02-08T15:17:31;54.13;;;35.60;;
38208;SDS011;24016;52.102;11.584;2023-02-08T15:20:05;54.58;;;36.85;;
38208;SDS011;24016;52.102;11.584;2023-02-08T15:22:36;54.70;;;37.47;;
38208;SDS011;24016;52.102;11.584;2023-02-08T15:25:21;55.75;;;37.45;;
38208;SDS011;24016;52.102;11.584;2023-02-08T15:27:51;59.10;;;38.97;;
38208;SDS011;24016;52.102;11.584;2023-02-08T15:32:55;53.15;;;36.58;;
38208;SDS011;24016;52.102;11.584;2023-02-08T15:35:21;53.25;;;36.20;;
38208;SDS011;24016;52.102;11.584;2023-02-08T15:37:50;54.40;;;35.35;;
38208;SDS011;24016;52.102;11.584;2023-02-08T15:40:21;52.90;;;35.67;;
38208;SDS011;24016;52.102;11.584;2023-02-08T15:43:30;54.08;;;35.15;;
38208;SDS011;24016;52.102;11.584;2023-02-08T15:46:02;55.58;;;35.38;;
38208;SDS011;24016;52.102;11.584;2023-02-08T15:48:29;49.05;;;34.85;;
38208;SDS011;24016;52.102;11.584;2023-02-08T15:50:56;53.13;;;35.45;;
38208;SDS011;24016;52.102;11.584;2023-02-08T15:53:24;52.47;;;35.33;;
38208;SDS011;24016;52.102;11.584;2023-02-08T15:55:51;56.08;;;35.08;;
38208;SDS011;24016;52.102;11.584;2023-02-08T15:58:31;54.10;;;36.17;;
38208;SDS011;24016;52.102;11.584;2023-02-08T16:01:04;54.42;;;35.83;;
38208;SDS011;24016;52.102;11.584;2023-02-08T16:03:31;55.13;;;36.58;;
38208;SDS011;24016;52.102;11.584;2023-02-08T16:06:02;53.38;;;34.65;;
38208;SDS011;24016;52.102;11.584;2023-02-08T16:08:31;52.08;;;36.33;;
38208;SDS011;24016;52.102;11.584;2023-02-08T16:11:00;52.72;;;34.97;;